createdAt,value
2023-02-01T00:01:31.303Z,34.59
2023-02-01T00:04:00.156Z,34.54
2023-02-01T00:06:28.614Z,34.48
2023-02-01T00:08:57.495Z,34.51
2023-02-01T00:11:25.963Z,34.63
2023-02-01T00:13:54.670Z,34.56
2023-02-01T00:16:28.316Z,34.64
2023-02-01T00:19:03.949Z,34.66
2023-02-01T00:21:33.146Z,34.50
2023-02-01T00:24:01.870Z,34.80
2023-02-01T00:26:30.203Z,34.54
2023-02-01T00:28:59.103Z,34.69
2023-02-01T00:31:29.463Z,34.57
2023-02-01T00:33:58.731Z,34.85
2023-02-01T00:36:27.267Z,34.66
2023-02-01T00:38:56.138Z,34.67
2023-02-01T00:41:24.859Z,34.72
2023-02-01T00:43:53.652Z,34.61
2023-02-01T00:46:22.870Z,34.80
2023-02-01T00:48:51.768Z,34.69
2023-02-01T00:51:24.053Z,34.53
2023-02-01T00:53:52.857Z,34.57
2023-02-01T00:56:21.468Z,35.02
2023-02-01T00:58:50.327Z,34.77
2023-02-01T01:01:22.024Z,34.75
2023-02-01T01:03:57.797Z,34.86
2023-02-01T01:06:33.093Z,34.72
2023-02-01T01:09:05.278Z,34.98
2023-02-01T01:11:36.775Z,35.12
2023-02-01T01:14:09.016Z,35.70
2023-02-01T01:16:38.028Z,34.90
2023-02-01T01:19:07.920Z,35.22
2023-02-01T01:21:36.286Z,34.92
2023-02-01T01:24:05.902Z,35.65
2023-02-01T01:26:34.346Z,35.46
2023-02-01T01:29:03.099Z,34.95
2023-02-01T01:31:32.011Z,35.58
2023-02-01T01:34:00.957Z,35.64
2023-02-01T01:36:30.441Z,35.69
2023-02-01T01:38:59.260Z,35.99
2023-02-01T01:41:32.151Z,35.58
2023-02-01T01:44:46.444Z,35.46
2023-02-01T01:47:16.067Z,35.04
2023-02-01T01:49:44.958Z,35.30
2023-02-01T01:52:14.056Z,34.84
2023-02-01T01:54:47.459Z,35.45
2023-02-01T01:57:33.717Z,35.05
2023-02-01T02:00:14.818Z,35.00
2023-02-01T02:02:45.539Z,35.33
2023-02-01T02:05:15.143Z,35.01
2023-02-01T02:07:46.687Z,35.62
2023-02-01T02:10:15.649Z,35.85
2023-02-01T02:12:46.326Z,35.35
2023-02-01T02:15:16.125Z,35.11
2023-02-01T02:17:59.724Z,35.02
2023-02-01T02:21:04.576Z,34.97
2023-02-01T02:23:54.726Z,35.03
2023-02-01T02:26:32.310Z,35.55
2023-02-01T02:29:15.724Z,35.68
2023-02-01T02:32:15.005Z,35.43
2023-02-01T02:34:58.941Z,35.35
2023-02-01T02:37:34.849Z,35.86
2023-02-01T02:40:32.564Z,35.27
2023-02-01T02:44:09.393Z,35.10
2023-02-01T02:47:04.395Z,34.90
2023-02-01T02:49:43.766Z,35.59
2023-02-01T02:52:37.361Z,35.40
2023-02-01T02:55:06.461Z,34.92
2023-02-01T02:57:59.506Z,35.16
2023-02-01T03:00:52.149Z,35.18
2023-02-01T03:03:39.508Z,36.05
2023-02-01T03:06:16.039Z,35.18
2023-02-01T03:08:46.487Z,35.13
2023-02-01T03:11:15.863Z,35.71
2023-02-01T03:14:01.348Z,34.76
2023-02-01T03:16:49.181Z,34.97
2023-02-01T03:19:35.836Z,34.91
2023-02-01T03:22:11.145Z,35.21
2023-02-01T03:24:41.659Z,34.69
2023-02-01T03:27:29.159Z,34.81
2023-02-01T03:30:12.429Z,34.78
2023-02-01T03:33:00.451Z,34.97
2023-02-01T03:36:08.333Z,34.48
2023-02-01T03:39:10.670Z,34.62
2023-02-01T03:41:44.101Z,34.66
2023-02-01T03:44:22.167Z,34.55
2023-02-01T03:47:16.337Z,34.76
2023-02-01T03:49:52.540Z,34.70
2023-02-01T03:52:38.874Z,34.40
2023-02-01T03:55:08.298Z,34.67
2023-02-01T03:57:41.325Z,34.57
2023-02-01T04:00:31.832Z,34.75
2023-02-01T04:03:01.149Z,34.65
2023-02-01T04:05:31.531Z,34.45
2023-02-01T04:08:06.348Z,34.60
2023-02-01T04:10:35.152Z,34.61
2023-02-01T04:13:03.710Z,34.42
2023-02-01T04:15:32.663Z,34.75
2023-02-01T04:18:01.232Z,34.57
2023-02-01T04:20:30.219Z,34.62
2023-02-01T04:22:58.924Z,34.70
2023-02-01T04:25:27.966Z,34.65
2023-02-01T04:27:56.512Z,34.64
2023-02-01T04:30:26.614Z,34.57
2023-02-01T04:32:55.141Z,34.50
2023-02-01T04:35:24.119Z,35.39
2023-02-01T04:37:52.659Z,34.74
2023-02-01T04:40:22.858Z,34.43
2023-02-01T04:42:51.588Z,34.35
2023-02-01T04:45:20.500Z,34.13
2023-02-01T04:47:50.430Z,34.12
2023-02-01T04:50:19.452Z,33.84
2023-02-01T04:52:48.187Z,33.71
2023-02-01T04:55:17.311Z,33.59
2023-02-01T04:57:45.839Z,33.54
2023-02-01T05:00:15.561Z,33.17
2023-02-01T05:02:44.189Z,32.95
2023-02-01T05:05:13.088Z,32.65
2023-02-01T05:07:41.609Z,32.50
2023-02-01T05:10:11.959Z,32.51
2023-02-01T05:12:59.258Z,32.18
2023-02-01T05:15:28.210Z,32.07
2023-02-01T05:17:57.927Z,32.03
2023-02-01T05:20:26.953Z,31.88
2023-02-01T05:22:55.492Z,31.88
2023-02-01T05:25:24.399Z,31.58
2023-02-01T05:27:52.899Z,31.85
2023-02-01T05:30:22.439Z,31.43
2023-02-01T05:32:53.181Z,31.44
2023-02-01T05:35:22.082Z,31.20
2023-02-01T05:37:50.668Z,31.19
2023-02-01T05:40:19.619Z,31.02
2023-02-01T05:42:48.192Z,31.32
2023-02-01T05:45:17.317Z,31.31
2023-02-01T05:47:45.858Z,31.36
2023-02-01T05:50:15.047Z,31.01
2023-02-01T05:52:43.609Z,30.85
2023-02-01T05:55:41.287Z,30.89
2023-02-01T05:58:09.849Z,30.63
2023-02-01T06:00:38.838Z,30.75
2023-02-01T06:03:08.049Z,30.57
2023-02-01T06:05:38.221Z,30.41
2023-02-01T06:08:08.665Z,30.32
2023-02-01T06:10:37.770Z,30.40
2023-02-01T06:13:06.681Z,30.36
2023-02-01T06:15:36.497Z,30.39
2023-02-01T06:18:05.514Z,30.56
2023-02-01T06:20:34.597Z,30.67
2023-02-01T06:23:03.328Z,30.51
2023-02-01T06:25:32.388Z,30.80
2023-02-01T06:28:07.061Z,30.94
2023-02-01T06:30:36.271Z,30.95
2023-02-01T06:33:04.958Z,30.82
2023-02-01T06:35:33.968Z,30.72
2023-02-01T06:38:02.793Z,30.87
2023-02-01T06:40:31.877Z,30.82
2023-02-01T06:43:00.719Z,31.14
2023-02-01T06:45:29.800Z,30.97
2023-02-01T06:47:59.865Z,30.93
2023-02-01T06:50:29.020Z,31.01
2023-02-01T06:52:57.769Z,31.04
2023-02-01T06:55:26.567Z,31.15
2023-02-01T06:57:56.129Z,31.34
2023-02-01T07:00:25.445Z,31.37
2023-02-01T07:02:54.328Z,31.10
2023-02-01T07:05:23.178Z,31.61
2023-02-01T07:07:51.731Z,31.74
2023-02-01T07:10:20.666Z,31.65
2023-02-01T07:12:49.378Z,31.73
2023-02-01T07:15:18.406Z,31.69
2023-02-01T07:17:48.193Z,31.55
2023-02-01T07:20:18.019Z,31.66
2023-02-01T07:22:46.480Z,31.88
2023-02-01T07:25:15.418Z,31.89
2023-02-01T07:27:43.921Z,31.96
2023-02-01T07:30:13.419Z,32.12
2023-02-01T07:32:42.291Z,32.29
2023-02-01T07:35:11.226Z,32.11
2023-02-01T07:37:39.727Z,32.18
2023-02-01T07:40:09.500Z,32.02
2023-02-01T07:42:38.015Z,32.16
2023-02-01T07:45:20.514Z,32.01
2023-02-01T07:47:50.373Z,32.07
2023-02-01T07:50:19.289Z,32.02
2023-02-01T07:52:47.776Z,32.13
2023-02-01T07:55:17.896Z,32.04
2023-02-01T07:57:46.552Z,32.08
2023-02-01T08:00:34.689Z,32.20
2023-02-01T08:03:04.439Z,32.25
2023-02-01T08:05:33.401Z,32.18
2023-02-01T08:08:02.152Z,32.63
2023-02-01T08:10:30.944Z,33.09
2023-02-01T08:13:01.368Z,33.34
2023-02-01T08:15:30.669Z,33.32
2023-02-01T08:17:59.788Z,33.45
2023-02-01T08:20:29.600Z,33.31
2023-02-01T08:22:58.018Z,33.34
2023-02-01T08:25:26.811Z,33.21
2023-02-01T08:27:56.013Z,33.05
2023-02-01T08:30:25.017Z,33.17
2023-02-01T08:32:53.668Z,33.13
2023-02-01T08:35:25.762Z,33.42
2023-02-01T08:37:59.159Z,33.41
2023-02-01T08:40:27.971Z,33.24
2023-02-01T08:42:57.268Z,33.24
2023-02-01T08:45:29.190Z,33.08
2023-02-01T08:47:58.005Z,33.22
2023-02-01T08:50:27.248Z,33.25
2023-02-01T08:52:55.977Z,33.58
2023-02-01T08:55:24.850Z,33.30
2023-02-01T08:57:53.466Z,33.34
2023-02-01T09:00:23.980Z,33.00
2023-02-01T09:02:52.708Z,33.20
2023-02-01T09:05:24.322Z,33.11
2023-02-01T09:07:52.867Z,33.07
2023-02-01T09:10:34.287Z,33.00
2023-02-01T09:13:04.277Z,33.12
2023-02-01T09:15:33.137Z,33.01
2023-02-01T09:18:01.693Z,32.88
2023-02-01T09:20:30.741Z,32.95
2023-02-01T09:22:59.164Z,32.73
2023-02-01T09:25:28.758Z,32.73
2023-02-01T09:27:57.479Z,32.77
2023-02-01T09:30:26.764Z,32.64
2023-02-01T09:32:55.509Z,32.75
2023-02-01T09:35:25.557Z,32.77
2023-02-01T09:37:57.184Z,32.84
2023-02-01T09:40:26.531Z,32.73
2023-02-01T09:43:00.599Z,32.89
2023-02-01T09:45:56.221Z,32.94
2023-02-01T09:48:34.232Z,32.92
2023-02-01T09:51:06.017Z,33.21
2023-02-01T09:53:40.468Z,33.27
2023-02-01T09:56:15.289Z,33.09
2023-02-01T09:58:44.847Z,33.06
2023-02-01T10:01:26.399Z,33.26
2023-02-01T10:04:06.586Z,33.32
2023-02-01T10:06:54.247Z,33.39
2023-02-01T10:09:25.929Z,33.47
2023-02-01T10:12:33.095Z,33.50
2023-02-01T10:15:08.171Z,33.25
2023-02-01T10:17:50.139Z,33.45
2023-02-01T10:20:46.379Z,33.43
2023-02-01T10:23:43.390Z,33.43
2023-02-01T10:26:26.555Z,33.64
2023-02-01T10:29:03.721Z,33.70
2023-02-01T10:31:36.533Z,33.48
2023-02-01T10:34:14.036Z,33.69
2023-02-01T10:36:49.525Z,33.69
2023-02-01T10:39:18.492Z,33.54
2023-02-01T10:41:47.881Z,33.56
2023-02-01T10:44:29.208Z,33.48
2023-02-01T10:46:57.756Z,33.29
2023-02-01T10:49:35.108Z,33.02
2023-02-01T10:52:18.712Z,33.06
2023-02-01T10:54:48.010Z,32.95
2023-02-01T10:57:29.542Z,32.63
2023-02-01T10:59:58.735Z,32.67
2023-02-01T11:02:30.571Z,32.59
2023-02-01T11:05:07.397Z,32.43
2023-02-01T11:07:36.239Z,32.35
2023-02-01T11:10:05.759Z,32.07
2023-02-01T11:12:38.268Z,31.87
2023-02-01T11:15:19.776Z,32.01
2023-02-01T11:17:52.722Z,31.75
2023-02-01T11:20:42.175Z,31.60
2023-02-01T11:23:18.952Z,31.54
2023-02-01T11:26:00.469Z,31.45
2023-02-01T11:28:32.430Z,31.42
2023-02-01T11:31:07.385Z,31.74
2023-02-01T11:33:38.658Z,31.26
2023-02-01T11:36:31.796Z,31.29
2023-02-01T11:39:11.153Z,31.04
2023-02-01T11:42:02.977Z,31.12
2023-02-01T11:44:36.028Z,31.11
2023-02-01T11:47:28.132Z,31.18
2023-02-01T11:50:01.023Z,30.86
2023-02-01T11:52:57.289Z,31.63
2023-02-01T11:55:31.835Z,34.05
2023-02-01T11:58:12.931Z,34.69
2023-02-01T12:00:48.786Z,35.52
2023-02-01T12:03:53.670Z,35.85
2023-02-01T12:06:25.967Z,36.15
2023-02-01T12:09:31.741Z,36.23
2023-02-01T12:12:07.147Z,34.85
2023-02-01T12:14:55.788Z,33.83
2023-02-01T12:18:01.141Z,33.26
2023-02-01T12:20:58.750Z,33.26
2023-02-01T12:24:12.601Z,33.26
2023-02-01T12:26:56.186Z,33.13
2023-02-01T12:29:45.738Z,33.09
2023-02-01T12:32:46.159Z,33.28
2023-02-01T12:35:40.662Z,33.49
2023-02-01T12:38:22.869Z,33.38
2023-02-01T12:41:24.094Z,33.50
2023-02-01T12:44:32.619Z,33.77
2023-02-01T12:47:22.636Z,33.72
2023-02-01T12:50:06.380Z,33.90
2023-02-01T12:52:54.948Z,33.84
2023-02-01T12:55:41.701Z,34.15
2023-02-01T12:58:44.298Z,33.97
2023-02-01T13:01:36.817Z,34.07
2023-02-01T13:04:17.609Z,34.31
2023-02-01T13:07:09.251Z,34.38
2023-02-01T13:09:48.762Z,34.48
2023-02-01T13:12:27.334Z,34.40
2023-02-01T13:15:01.860Z,34.66
2023-02-01T13:17:33.479Z,34.53
2023-02-01T13:20:19.956Z,34.50
2023-02-01T13:22:56.411Z,34.58
2023-02-01T13:25:51.773Z,34.60
2023-02-01T13:28:48.791Z,34.58
2023-02-01T13:32:19.402Z,34.79
2023-02-01T13:35:17.263Z,34.83
2023-02-01T13:38:16.763Z,34.77
2023-02-01T13:41:30.082Z,34.74
2023-02-01T13:44:15.372Z,34.94
2023-02-01T13:46:47.643Z,35.01
2023-02-01T13:49:26.515Z,34.95
2023-02-01T13:51:57.400Z,35.01
2023-02-01T13:54:39.259Z,35.03
2023-02-01T13:57:38.820Z,35.22
2023-02-01T14:00:31.649Z,35.32
2023-02-01T14:03:03.706Z,35.30
2023-02-01T14:05:32.734Z,35.20
2023-02-01T14:08:26.048Z,35.24
2023-02-01T14:10:59.515Z,35.59
2023-02-01T14:13:42.303Z,35.64
2023-02-01T14:16:17.874Z,35.80
2023-02-01T14:18:47.514Z,35.58
2023-02-01T14:21:33.392Z,35.58
2023-02-01T14:24:11.325Z,35.87
2023-02-01T14:26:43.868Z,35.83
2023-02-01T14:29:22.252Z,35.93
2023-02-01T14:32:13.983Z,35.83
2023-02-01T14:34:55.962Z,35.87
2023-02-01T14:37:33.151Z,36.07
2023-02-01T14:40:12.186Z,36.07
2023-02-01T14:42:43.883Z,36.02
2023-02-01T14:45:25.583Z,36.05
2023-02-01T14:48:09.634Z,36.21
2023-02-01T14:50:42.029Z,36.64
2023-02-01T14:53:16.642Z,36.64
2023-02-01T14:55:51.764Z,36.71
2023-02-01T14:58:48.411Z,36.86
2023-02-01T15:01:33.033Z,36.76
2023-02-01T15:04:11.271Z,36.98
2023-02-01T15:06:41.636Z,37.03
2023-02-01T15:09:28.077Z,37.20
2023-02-01T15:12:13.629Z,37.19
2023-02-01T15:15:05.487Z,37.16
2023-02-01T15:17:38.392Z,37.36
2023-02-01T15:20:17.144Z,37.37
2023-02-01T15:23:02.477Z,37.46
2023-02-01T15:25:35.500Z,37.63
2023-02-01T15:28:04.761Z,37.55
2023-02-01T15:30:35.717Z,37.66
2023-02-01T15:33:13.812Z,37.92
2023-02-01T15:35:44.882Z,37.91
2023-02-01T15:38:27.532Z,38.14
2023-02-01T15:41:08.999Z,38.29
2023-02-01T15:43:54.800Z,38.34
2023-02-01T15:46:31.819Z,38.47
2023-02-01T15:49:00.841Z,38.51
2023-02-01T15:51:31.739Z,38.61
2023-02-01T15:54:08.980Z,38.75
2023-02-01T15:56:39.417Z,38.73
2023-02-01T15:59:18.462Z,39.12
2023-02-01T16:01:47.296Z,39.04
2023-02-01T16:04:19.643Z,38.95
2023-02-01T16:07:22.284Z,39.19
2023-02-01T16:09:57.292Z,39.08
2023-02-01T16:12:33.197Z,39.03
2023-02-01T16:15:02.833Z,39.40
2023-02-01T16:17:31.632Z,39.09
2023-02-01T16:20:00.853Z,39.32
2023-02-01T16:22:31.639Z,39.18
2023-02-01T16:25:00.666Z,39.29
2023-02-01T16:27:29.461Z,39.31
2023-02-01T16:29:58.581Z,39.36
2023-02-01T16:32:27.846Z,39.37
2023-02-01T16:34:57.752Z,39.35
2023-02-01T16:37:29.190Z,39.38
2023-02-01T16:39:58.292Z,39.26
2023-02-01T16:42:27.046Z,39.20
2023-02-01T16:44:56.092Z,39.20
2023-02-01T16:47:24.879Z,39.58
2023-02-01T16:49:53.882Z,39.80
2023-02-01T16:52:26.689Z,39.93
2023-02-01T16:54:55.684Z,39.57
2023-02-01T16:57:25.008Z,39.56
2023-02-01T16:59:54.240Z,39.70
2023-02-01T17:02:25.034Z,39.60
2023-02-01T17:04:55.449Z,39.63
2023-02-01T17:07:24.632Z,39.53
2023-02-01T17:09:53.681Z,39.58
2023-02-01T17:12:33.635Z,39.57
2023-02-01T17:15:02.718Z,39.43
2023-02-01T17:17:39.745Z,39.61
2023-02-01T17:20:11.593Z,39.75
2023-02-01T17:22:40.325Z,39.60
2023-02-01T17:25:18.899Z,39.39
2023-02-01T17:27:48.214Z,39.50
2023-02-01T17:30:17.701Z,39.13
2023-02-01T17:32:46.468Z,38.98
2023-02-01T17:35:22.532Z,38.78
2023-02-01T17:37:52.158Z,38.67
2023-02-01T17:40:21.412Z,38.30
2023-02-01T17:42:50.493Z,38.26
2023-02-01T17:45:38.935Z,38.17
2023-02-01T17:48:08.553Z,38.04
2023-02-01T17:50:38.182Z,37.83
2023-02-01T17:53:10.069Z,38.05
2023-02-01T17:55:42.394Z,37.91
2023-02-01T17:58:15.041Z,37.90
2023-02-01T18:00:44.371Z,37.97
2023-02-01T18:03:32.231Z,38.19
2023-02-01T18:06:02.312Z,38.01
2023-02-01T18:08:33.923Z,38.14
2023-02-01T18:11:03.167Z,38.17
2023-02-01T18:13:32.431Z,37.92
2023-02-01T18:16:02.641Z,38.01
2023-02-01T18:18:36.454Z,38.03
2023-02-01T18:21:07.920Z,38.04
2023-02-01T18:23:36.655Z,37.85
2023-02-01T18:26:06.122Z,37.55
2023-02-01T18:28:34.967Z,37.54
2023-02-01T18:31:04.681Z,37.36
2023-02-01T18:33:33.509Z,37.36
2023-02-01T18:36:02.601Z,37.29
2023-02-01T18:38:31.353Z,37.33
2023-02-01T18:41:01.482Z,37.38
2023-02-01T18:43:30.202Z,37.59
2023-02-01T18:46:00.140Z,37.32
2023-02-01T18:48:28.903Z,37.57
2023-02-01T18:50:58.182Z,37.59
2023-02-01T18:53:29.580Z,37.87
2023-02-01T18:56:00.659Z,37.92
2023-02-01T18:58:29.609Z,38.01
2023-02-01T19:01:07.277Z,38.32
2023-02-01T19:03:40.930Z,38.31
2023-02-01T19:06:12.976Z,38.56
2023-02-01T19:08:41.764Z,38.60
2023-02-01T19:11:12.668Z,38.66
2023-02-01T19:13:41.632Z,38.50
2023-02-01T19:16:12.648Z,38.44
2023-02-01T19:18:41.412Z,38.68
2023-02-01T19:21:12.412Z,38.38
2023-02-01T19:23:41.607Z,38.39
2023-02-01T19:26:15.075Z,38.14
2023-02-01T19:28:48.141Z,37.80
2023-02-01T19:31:17.341Z,37.70
2023-02-01T19:33:46.483Z,37.65
2023-02-01T19:36:15.502Z,37.48
2023-02-01T19:38:44.322Z,37.47
2023-02-01T19:41:21.762Z,37.36
2023-02-01T19:43:52.861Z,37.49
2023-02-01T19:46:21.967Z,37.46
2023-02-01T19:48:53.102Z,37.57
2023-02-01T19:51:22.264Z,37.66
2023-02-01T19:53:50.946Z,37.79
2023-02-01T19:56:22.328Z,37.57
2023-02-01T19:58:52.281Z,37.88
2023-02-01T20:01:20.774Z,37.96
2023-02-01T20:03:49.883Z,38.03
2023-02-01T20:06:21.007Z,38.09
2023-02-01T20:08:50.218Z,38.27
2023-02-01T20:11:19.324Z,38.04
2023-02-01T20:13:49.210Z,38.30
2023-02-01T20:16:18.520Z,38.38
2023-02-01T20:18:47.542Z,38.37
2023-02-01T20:21:18.455Z,38.59
2023-02-01T20:23:47.743Z,38.36
2023-02-01T20:26:17.811Z,38.41
2023-02-01T20:28:46.531Z,38.36
2023-02-01T20:31:18.501Z,38.66
2023-02-01T20:33:47.305Z,38.60
2023-02-01T20:36:19.983Z,38.63
2023-02-01T20:38:48.750Z,38.57
2023-02-01T20:41:20.828Z,38.66
2023-02-01T20:43:49.672Z,38.69
2023-02-01T20:46:18.925Z,38.86
2023-02-01T20:48:48.590Z,38.81
2023-02-01T20:51:19.103Z,38.89
2023-02-01T20:53:48.843Z,38.79
2023-02-01T20:56:18.126Z,38.78
2023-02-01T20:58:46.764Z,38.79
2023-02-01T21:01:19.757Z,38.79
2023-02-01T21:03:48.220Z,38.82
2023-02-01T21:06:17.044Z,38.83
2023-02-01T21:08:45.418Z,38.76
2023-02-01T21:11:16.390Z,38.85
2023-02-01T21:13:50.902Z,38.79
2023-02-01T21:16:21.669Z,38.56
2023-02-01T21:18:53.903Z,38.74
2023-02-01T21:21:22.824Z,38.58
2023-02-01T21:23:52.988Z,38.65
2023-02-01T21:26:23.220Z,38.87
2023-02-01T21:28:52.936Z,38.77
2023-02-01T21:31:25.074Z,38.81
2023-02-01T21:33:53.475Z,38.72
2023-02-01T21:36:23.095Z,38.72
2023-02-01T21:38:55.338Z,38.60
2023-02-01T21:41:47.353Z,38.54
2023-02-01T21:44:16.348Z,38.50
2023-02-01T21:46:45.769Z,38.53
2023-02-01T21:49:14.456Z,38.48
2023-02-01T21:51:43.744Z,38.49
2023-02-01T21:54:12.698Z,38.42
2023-02-01T21:56:41.954Z,38.44
2023-02-01T21:59:10.630Z,38.53
2023-02-01T22:01:40.703Z,38.46
2023-02-01T22:04:10.411Z,38.27
2023-02-01T22:06:47.114Z,38.31
2023-02-01T22:09:24.247Z,38.24
2023-02-01T22:11:54.212Z,38.31
2023-02-01T22:14:23.110Z,38.35
2023-02-01T22:16:52.276Z,38.43
2023-02-01T22:19:21.698Z,38.23
2023-02-01T22:21:50.746Z,38.30
2023-02-01T22:24:23.009Z,38.42
2023-02-01T22:26:51.880Z,38.47
2023-02-01T22:29:21.065Z,38.24
2023-02-01T22:31:50.241Z,38.25
2023-02-01T22:34:19.470Z,38.38
2023-02-01T22:36:50.998Z,38.27
2023-02-01T22:39:20.007Z,38.42
2023-02-01T22:41:48.635Z,38.29
2023-02-01T22:44:17.708Z,38.31
2023-02-01T22:46:46.393Z,38.52
2023-02-01T22:49:15.848Z,38.37
2023-02-01T22:51:44.668Z,38.46
2023-02-01T22:54:22.841Z,38.25
2023-02-01T22:56:51.668Z,38.46
2023-02-01T22:59:20.735Z,38.44
2023-02-01T23:01:49.475Z,38.36
2023-02-01T23:04:19.174Z,38.43
2023-02-01T23:06:54.020Z,38.80
2023-02-01T23:09:25.597Z,38.19
2023-02-01T23:11:55.127Z,38.38
2023-02-01T23:14:24.315Z,38.91
2023-02-01T23:16:53.426Z,38.51
2023-02-01T23:19:22.732Z,39.37
2023-02-01T23:21:51.439Z,39.39
2023-02-01T23:24:20.514Z,38.67
2023-02-01T23:26:49.263Z,38.69
2023-02-01T23:29:18.958Z,38.69
2023-02-01T23:31:47.803Z,38.74
2023-02-01T23:34:16.934Z,38.98
2023-02-01T23:36:45.668Z,38.61
2023-02-01T23:39:14.743Z,38.78
2023-02-01T23:41:43.536Z,39.01
2023-02-01T23:44:12.889Z,38.52
2023-02-01T23:46:47.630Z,38.78
2023-02-01T23:49:19.894Z,38.89
2023-02-01T23:51:51.994Z,38.94
2023-02-01T23:54:22.831Z,38.95
2023-02-01T23:56:51.694Z,38.77
2023-02-01T23:59:22.221Z,38.88
